sensor_id;sensor_type;location;lat;lon;timestamp;temperature;humidity
43842;DHT22;29495;49.970;20.842;2023-07-24T00:01:17;22.40;99.90
43842;DHT22;29495;49.970;20.842;2023-07-24T00:03:44;22.40;1.00
43842;DHT22;29495;49.970;20.842;2023-07-24T00:06:10;22.40;1.00
43842;DHT22;29495;49.970;20.842;2023-07-24T00:08:35;22.40;99.90
43842;DHT22;29495;49.970;20.842;2023-07-24T00:11:01;22.40;1.00
43842;DHT22;29495;49.970;20.842;2023-07-24T00:13:30;22.40;1.00
43842;DHT22;29495;49.970;20.842;2023-07-24T00:15:56;22.40;1.00
43842;DHT22;29495;49.970;20.842;2023-07-24T00:18:22;22.40;99.90
43842;DHT22;29495;49.970;20.842;2023-07-24T00:20:48;22.40;99.90
43842;DHT22;29495;49.970;20.842;2023-07-24T00:23:14;22.40;99.90
43842;DHT22;29495;49.970;20.842;2023-07-24T00:25:40;22.40;1.00
43842;DHT22;29495;49.970;20.842;2023-07-24T00:28:06;22.40;99.90
43842;DHT22;29495;49.970;20.842;2023-07-24T00:30:32;22.40;99.90
43842;DHT22;29495;49.970;20.842;2023-07-24T00:32:58;22.40;62.60
43842;DHT22;29495;49.970;20.842;2023-07-24T00:35:24;22.50;79.00
43842;DHT22;29495;49.970;20.842;2023-07-24T00:37:50;22.40;90.30
43842;DHT22;29495;49.970;20.842;2023-07-24T00:40:16;22.50;99.90
43842;DHT22;29495;49.970;20.842;2023-07-24T00:42:45;22.50;26.40
43842;DHT22;29495;49.970;20.842;2023-07-24T00:45:13;22.50;99.90
43842;DHT22;29495;49.970;20.842;2023-07-24T00:47:39;22.40;1.00
43842;DHT22;29495;49.970;20.842;2023-07-24T00:50:05;22.50;1.00
43842;DHT22;29495;49.970;20.842;2023-07-24T00:52:32;22.50;99.90
43842;DHT22;29495;49.970;20.842;2023-07-24T00:54:59;22.50;1.00
43842;DHT22;29495;49.970;20.842;2023-07-24T00:57:25;22.40;1.00
43842;DHT22;29495;49.970;20.842;2023-07-24T00:59:51;22.40;99.90
43842;DHT22;29495;49.970;20.842;2023-07-24T01:02:17;22.40;99.90
43842;DHT22;29495;49.970;20.842;2023-07-24T01:04:42;22.40;99.90
43842;DHT22;29495;49.970;20.842;2023-07-24T01:07:08;22.40;99.90
43842;DHT22;29495;49.970;20.842;2023-07-24T01:09:34;22.40;99.90
43842;DHT22;29495;49.970;20.842;2023-07-24T01:12:10;22.40;99.90
43842;DHT22;29495;49.970;20.842;2023-07-24T01:17:12;22.30;99.90
43842;DHT22;29495;49.970;20.842;2023-07-24T01:19:46;22.30;1.00
43842;DHT22;29495;49.970;20.842;2023-07-24T01:22:16;22.30;99.90
43842;DHT22;29495;49.970;20.842;2023-07-24T01:27:25;22.30;91.50
43842;DHT22;29495;49.970;20.842;2023-07-24T01:29:50;22.30;99.90
43842;DHT22;29495;49.970;20.842;2023-07-24T01:32:16;22.30;95.80
43842;DHT22;29495;49.970;20.842;2023-07-24T01:34:43;22.20;1.00
43842;DHT22;29495;49.970;20.842;2023-07-24T01:37:09;22.20;17.90
43842;DHT22;29495;49.970;20.842;2023-07-24T01:39:35;22.20;1.00
43842;DHT22;29495;49.970;20.842;2023-07-24T01:42:01;22.10;1.00
43842;DHT22;29495;49.970;20.842;2023-07-24T01:44:27;22.10;98.50
43842;DHT22;29495;49.970;20.842;2023-07-24T01:46:53;22.10;43.50
43842;DHT22;29495;49.970;20.842;2023-07-24T01:49:19;22.10;54.60
43842;DHT22;29495;49.970;20.842;2023-07-24T01:51:45;22.10;99.90
43842;DHT22;29495;49.970;20.842;2023-07-24T01:54:11;22.10;99.90
43842;DHT22;29495;49.970;20.842;2023-07-24T01:56:36;22.00;99.90
43842;DHT22;29495;49.970;20.842;2023-07-24T01:59:05;22.00;99.90
43842;DHT22;29495;49.970;20.842;2023-07-24T02:01:31;21.90;99.90
43842;DHT22;29495;49.970;20.842;2023-07-24T02:03:57;21.90;99.90
43842;DHT22;29495;49.970;20.842;2023-07-24T02:06:23;21.90;99.90
43842;DHT22;29495;49.970;20.842;2023-07-24T02:08:49;21.90;99.90
43842;DHT22;29495;49.970;20.842;2023-07-24T02:11:16;21.90;99.90
43842;DHT22;29495;49.970;20.842;2023-07-24T02:13:45;21.80;99.90
43842;DHT22;29495;49.970;20.842;2023-07-24T02:16:12;21.90;99.90
43842;DHT22;29495;49.970;20.842;2023-07-24T02:18:38;21.90;99.90
43842;DHT22;29495;49.970;20.842;2023-07-24T02:21:04;21.90;99.90
43842;DHT22;29495;49.970;20.842;2023-07-24T02:23:30;21.90;99.90
43842;DHT22;29495;49.970;20.842;2023-07-24T02:25:55;22.00;99.90
43842;DHT22;29495;49.970;20.842;2023-07-24T02:28:21;21.90;99.90
43842;DHT22;29495;49.970;20.842;2023-07-24T02:30:47;22.00;99.90
43842;DHT22;29495;49.970;20.842;2023-07-24T02:33:13;22.00;99.90
43842;DHT22;29495;49.970;20.842;2023-07-24T02:35:41;21.90;99.90
43842;DHT22;29495;49.970;20.842;2023-07-24T02:38:07;21.90;99.90
43842;DHT22;29495;49.970;20.842;2023-07-24T02:40:33;21.90;99.90
43842;DHT22;29495;49.970;20.842;2023-07-24T02:42:59;21.90;99.90
43842;DHT22;29495;49.970;20.842;2023-07-24T02:45:25;21.90;99.90
43842;DHT22;29495;49.970;20.842;2023-07-24T02:47:51;21.90;99.90
43842;DHT22;29495;49.970;20.842;2023-07-24T02:50:17;21.90;1.00
43842;DHT22;29495;49.970;20.842;2023-07-24T02:52:43;21.90;1.00
43842;DHT22;29495;49.970;20.842;2023-07-24T02:55:09;21.90;99.90
43842;DHT22;29495;49.970;20.842;2023-07-24T02:57:34;21.90;99.90
43842;DHT22;29495;49.970;20.842;2023-07-24T03:00:01;21.90;99.90
43842;DHT22;29495;49.970;20.842;2023-07-24T03:02:26;22.00;99.90
43842;DHT22;29495;49.970;20.842;2023-07-24T03:04:52;21.90;99.90
43842;DHT22;29495;49.970;20.842;2023-07-24T03:07:18;21.90;1.00
43842;DHT22;29495;49.970;20.842;2023-07-24T03:09:44;22.00;99.90
43842;DHT22;29495;49.970;20.842;2023-07-24T03:12:10;22.00;99.90
43842;DHT22;29495;49.970;20.842;2023-07-24T03:14:36;22.00;99.90
43842;DHT22;29495;49.970;20.842;2023-07-24T03:17:02;22.10;99.90
43842;DHT22;29495;49.970;20.842;2023-07-24T03:19:28;22.10;1.00
43842;DHT22;29495;49.970;20.842;2023-07-24T03:21:54;22.10;99.90
43842;DHT22;29495;49.970;20.842;2023-07-24T03:24:20;22.10;99.90
43842;DHT22;29495;49.970;20.842;2023-07-24T03:26:46;22.20;99.90
43842;DHT22;29495;49.970;20.842;2023-07-24T03:29:12;22.20;99.90
43842;DHT22;29495;49.970;20.842;2023-07-24T03:31:37;22.20;99.90
43842;DHT22;29495;49.970;20.842;2023-07-24T03:34:03;22.30;99.90
43842;DHT22;29495;49.970;20.842;2023-07-24T03:36:29;22.20;99.90
43842;DHT22;29495;49.970;20.842;2023-07-24T03:38:55;22.40;99.90
43842;DHT22;29495;49.970;20.842;2023-07-24T03:41:21;22.30;99.90
43842;DHT22;29495;49.970;20.842;2023-07-24T03:43:46;22.40;99.90
43842;DHT22;29495;49.970;20.842;2023-07-24T03:46:14;22.40;99.90
43842;DHT22;29495;49.970;20.842;2023-07-24T03:48:40;22.50;1.00
43842;DHT22;29495;49.970;20.842;2023-07-24T03:51:05;22.50;99.90
43842;DHT22;29495;49.970;20.842;2023-07-24T03:53:32;22.50;99.90
43842;DHT22;29495;49.970;20.842;2023-07-24T03:55:58;22.50;99.90
43842;DHT22;29495;49.970;20.842;2023-07-24T03:58:24;22.50;99.90
43842;DHT22;29495;49.970;20.842;2023-07-24T04:00:50;22.60;1.00
43842;DHT22;29495;49.970;20.842;2023-07-24T04:03:16;22.50;1.00
43842;DHT22;29495;49.970;20.842;2023-07-24T04:05:42;22.50;99.90
43842;DHT22;29495;49.970;20.842;2023-07-24T04:08:07;22.60;99.90
43842;DHT22;29495;49.970;20.842;2023-07-24T04:10:34;22.60;99.90
43842;DHT22;29495;49.970;20.842;2023-07-24T04:12:59;22.60;99.90
43842;DHT22;29495;49.970;20.842;2023-07-24T04:15:25;22.60;99.90
43842;DHT22;29495;49.970;20.842;2023-07-24T04:17:51;22.60;99.90
43842;DHT22;29495;49.970;20.842;2023-07-24T04:20:17;22.70;99.90
43842;DHT22;29495;49.970;20.842;2023-07-24T04:22:43;22.70;1.00
43842;DHT22;29495;49.970;20.842;2023-07-24T04:25:09;22.70;99.90
43842;DHT22;29495;49.970;20.842;2023-07-24T04:27:34;22.70;99.90
43842;DHT22;29495;49.970;20.842;2023-07-24T04:30:00;22.80;99.90
43842;DHT22;29495;49.970;20.842;2023-07-24T04:32:26;22.70;99.90
43842;DHT22;29495;49.970;20.842;2023-07-24T04:34:53;22.60;99.90
43842;DHT22;29495;49.970;20.842;2023-07-24T04:37:19;22.60;99.90
43842;DHT22;29495;49.970;20.842;2023-07-24T04:39:44;22.60;1.00
43842;DHT22;29495;49.970;20.842;2023-07-24T04:42:10;22.70;1.00
43842;DHT22;29495;49.970;20.842;2023-07-24T04:44:36;22.70;99.90
43842;DHT22;29495;49.970;20.842;2023-07-24T04:47:02;22.80;1.00
43842;DHT22;29495;49.970;20.842;2023-07-24T04:49:28;22.90;99.90
43842;DHT22;29495;49.970;20.842;2023-07-24T04:51:54;23.00;99.90
43842;DHT22;29495;49.970;20.842;2023-07-24T04:54:20;23.10;99.90
43842;DHT22;29495;49.970;20.842;2023-07-24T04:56:46;23.10;99.90
43842;DHT22;29495;49.970;20.842;2023-07-24T04:59:12;23.20;99.90
43842;DHT22;29495;49.970;20.842;2023-07-24T05:01:38;23.30;99.90
43842;DHT22;29495;49.970;20.842;2023-07-24T05:04:03;23.30;43.50
43842;DHT22;29495;49.970;20.842;2023-07-24T05:06:29;23.40;99.90
43842;DHT22;29495;49.970;20.842;2023-07-24T05:08:55;23.40;99.90
43842;DHT22;29495;49.970;20.842;2023-07-24T05:11:21;23.50;99.90
43842;DHT22;29495;49.970;20.842;2023-07-24T05:13:47;23.60;99.90
43842;DHT22;29495;49.970;20.842;2023-07-24T05:16:12;23.60;1.00
43842;DHT22;29495;49.970;20.842;2023-07-24T05:18:38;23.50;99.90
43842;DHT22;29495;49.970;20.842;2023-07-24T05:21:04;23.60;99.90
43842;DHT22;29495;49.970;20.842;2023-07-24T05:23:30;23.60;99.90
43842;DHT22;29495;49.970;20.842;2023-07-24T05:25:59;23.80;1.00
43842;DHT22;29495;49.970;20.842;2023-07-24T05:28:26;23.90;99.90
43842;DHT22;29495;49.970;20.842;2023-07-24T05:30:52;24.00;99.90
43842;DHT22;29495;49.970;20.842;2023-07-24T05:33:17;24.10;99.90
43842;DHT22;29495;49.970;20.842;2023-07-24T05:35:43;24.20;1.00
43842;DHT22;29495;49.970;20.842;2023-07-24T05:38:09;24.30;99.90
43842;DHT22;29495;49.970;20.842;2023-07-24T05:40:35;24.50;28.00
43842;DHT22;29495;49.970;20.842;2023-07-24T05:43:01;24.60;99.90
43842;DHT22;29495;49.970;20.842;2023-07-24T05:45:27;24.90;1.00
43842;DHT22;29495;49.970;20.842;2023-07-24T05:47:53;24.90;99.90
43842;DHT22;29495;49.970;20.842;2023-07-24T05:50:19;25.10;1.00
43842;DHT22;29495;49.970;20.842;2023-07-24T05:52:45;25.10;99.90
43842;DHT22;29495;49.970;20.842;2023-07-24T05:55:11;25.00;1.00
43842;DHT22;29495;49.970;20.842;2023-07-24T05:57:37;25.20;99.90
43842;DHT22;29495;49.970;20.842;2023-07-24T06:00:03;25.70;99.90
43842;DHT22;29495;49.970;20.842;2023-07-24T06:02:37;26.20;99.90
43842;DHT22;29495;49.970;20.842;2023-07-24T06:05:03;27.70;1.00
43842;DHT22;29495;49.970;20.842;2023-07-24T06:07:29;29.00;99.90
43842;DHT22;29495;49.970;20.842;2023-07-24T06:09:55;30.10;99.90
43842;DHT22;29495;49.970;20.842;2023-07-24T06:12:21;31.00;99.90
43842;DHT22;29495;49.970;20.842;2023-07-24T06:14:47;31.70;1.00
43842;DHT22;29495;49.970;20.842;2023-07-24T06:17:13;32.50;1.00
43842;DHT22;29495;49.970;20.842;2023-07-24T06:19:39;33.40;99.90
43842;DHT22;29495;49.970;20.842;2023-07-24T06:22:05;33.80;99.90
43842;DHT22;29495;49.970;20.842;2023-07-24T06:24:30;33.90;99.90
43842;DHT22;29495;49.970;20.842;2023-07-24T06:26:56;34.40;99.90
43842;DHT22;29495;49.970;20.842;2023-07-24T06:29:22;34.70;99.90
43842;DHT22;29495;49.970;20.842;2023-07-24T06:31:48;34.40;99.90
43842;DHT22;29495;49.970;20.842;2023-07-24T06:34:15;34.90;99.90
43842;DHT22;29495;49.970;20.842;2023-07-24T06:36:41;35.70;99.90
43842;DHT22;29495;49.970;20.842;2023-07-24T06:39:06;35.80;99.90
43842;DHT22;29495;49.970;20.842;2023-07-24T06:41:32;36.00;99.90
43842;DHT22;29495;49.970;20.842;2023-07-24T06:43:58;35.50;99.90
43842;DHT22;29495;49.970;20.842;2023-07-24T06:46:24;35.80;99.90
43842;DHT22;29495;49.970;20.842;2023-07-24T06:48:50;36.10;99.90
43842;DHT22;29495;49.970;20.842;2023-07-24T06:51:16;36.70;99.90
43842;DHT22;29495;49.970;20.842;2023-07-24T06:53:41;37.70;99.90
43842;DHT22;29495;49.970;20.842;2023-07-24T06:56:07;37.10;99.90
43842;DHT22;29495;49.970;20.842;2023-07-24T06:58:33;36.70;99.90
43842;DHT22;29495;49.970;20.842;2023-07-24T07:00:59;37.20;99.90
43842;DHT22;29495;49.970;20.842;2023-07-24T07:03:25;37.00;97.70
43842;DHT22;29495;49.970;20.842;2023-07-24T07:05:51;37.50;99.90
43842;DHT22;29495;49.970;20.842;2023-07-24T07:08:16;36.80;99.90
43842;DHT22;29495;49.970;20.842;2023-07-24T07:10:42;37.40;99.90
43842;DHT22;29495;49.970;20.842;2023-07-24T07:13:08;37.20;93.60
43842;DHT22;29495;49.970;20.842;2023-07-24T07:15:36;36.90;90.10
43842;DHT22;29495;49.970;20.842;2023-07-24T07:18:05;36.70;90.40
43842;DHT22;29495;49.970;20.842;2023-07-24T07:20:30;36.30;99.90
43842;DHT22;29495;49.970;20.842;2023-07-24T07:22:56;36.30;90.50
43842;DHT22;29495;49.970;20.842;2023-07-24T07:25:22;36.60;66.50
43842;DHT22;29495;49.970;20.842;2023-07-24T07:27:48;36.50;75.60
43842;DHT22;29495;49.970;20.842;2023-07-24T07:30:14;37.20;89.70
43842;DHT22;29495;49.970;20.842;2023-07-24T07:32:39;37.10;86.00
43842;DHT22;29495;49.970;20.842;2023-07-24T07:35:06;35.80;27.00
43842;DHT22;29495;49.970;20.842;2023-07-24T07:37:32;35.10;7.60
43842;DHT22;29495;49.970;20.842;2023-07-24T07:39:58;34.60;1.00
43842;DHT22;29495;49.970;20.842;2023-07-24T07:42:24;34.70;23.50
43842;DHT22;29495;49.970;20.842;2023-07-24T07:44:50;34.00;9.80
43842;DHT22;29495;49.970;20.842;2023-07-24T07:47:16;33.80;13.80
43842;DHT22;29495;49.970;20.842;2023-07-24T07:49:41;34.00;22.00
43842;DHT22;29495;49.970;20.842;2023-07-24T07:52:07;33.60;20.50
43842;DHT22;29495;49.970;20.842;2023-07-24T07:54:33;33.20;1.10
43842;DHT22;29495;49.970;20.842;2023-07-24T07:56:59;32.90;1.00
43842;DHT22;29495;49.970;20.842;2023-07-24T07:59:25;33.30;20.80
43842;DHT22;29495;49.970;20.842;2023-07-24T08:01:51;33.00;7.40
43842;DHT22;29495;49.970;20.842;2023-07-24T08:04:17;33.00;36.30
43842;DHT22;29495;49.970;20.842;2023-07-24T08:06:44;33.00;12.40
43842;DHT22;29495;49.970;20.842;2023-07-24T08:09:09;33.10;55.30
43842;DHT22;29495;49.970;20.842;2023-07-24T08:11:35;32.70;17.60
43842;DHT22;29495;49.970;20.842;2023-07-24T08:14:01;32.80;80.30
43842;DHT22;29495;49.970;20.842;2023-07-24T08:16:27;32.80;43.00
43842;DHT22;29495;49.970;20.842;2023-07-24T08:18:53;32.50;1.00
43842;DHT22;29495;49.970;20.842;2023-07-24T08:21:18;31.90;1.00
43842;DHT22;29495;49.970;20.842;2023-07-24T08:23:44;31.90;1.00
43842;DHT22;29495;49.970;20.842;2023-07-24T08:26:10;32.20;1.00
43842;DHT22;29495;49.970;20.842;2023-07-24T08:28:36;32.20;1.00
43842;DHT22;29495;49.970;20.842;2023-07-24T08:31:02;32.00;1.00
43842;DHT22;29495;49.970;20.842;2023-07-24T08:33:28;32.00;1.00
43842;DHT22;29495;49.970;20.842;2023-07-24T08:38:27;31.70;2.20
43842;DHT22;29495;49.970;20.842;2023-07-24T08:41:03;31.70;1.00
43842;DHT22;29495;49.970;20.842;2023-07-24T08:43:29;31.90;1.00
43842;DHT22;29495;49.970;20.842;2023-07-24T08:45:56;31.30;1.00
43842;DHT22;29495;49.970;20.842;2023-07-24T08:48:22;31.30;1.00
43842;DHT22;29495;49.970;20.842;2023-07-24T08:50:50;31.30;1.00
43842;DHT22;29495;49.970;20.842;2023-07-24T08:53:18;31.40;1.00
43842;DHT22;29495;49.970;20.842;2023-07-24T08:55:44;31.70;1.00
43842;DHT22;29495;49.970;20.842;2023-07-24T08:58:12;31.40;1.00
43842;DHT22;29495;49.970;20.842;2023-07-24T09:00:38;31.70;1.00
43842;DHT22;29495;49.970;20.842;2023-07-24T09:03:04;31.50;1.00
43842;DHT22;29495;49.970;20.842;2023-07-24T09:05:30;31.80;1.00
43842;DHT22;29495;49.970;20.842;2023-07-24T09:07:56;31.80;1.00
43842;DHT22;29495;49.970;20.842;2023-07-24T09:10:25;31.70;1.00
43842;DHT22;29495;49.970;20.842;2023-07-24T09:12:51;32.20;6.10
43842;DHT22;29495;49.970;20.842;2023-07-24T09:15:17;32.60;17.20
43842;DHT22;29495;49.970;20.842;2023-07-24T09:17:53;32.30;11.10
43842;DHT22;29495;49.970;20.842;2023-07-24T09:20:19;31.90;1.00
43842;DHT22;29495;49.970;20.842;2023-07-24T09:22:52;31.60;2.00
43842;DHT22;29495;49.970;20.842;2023-07-24T09:25:18;31.90;23.00
43842;DHT22;29495;49.970;20.842;2023-07-24T09:27:44;32.20;41.70
43842;DHT22;29495;49.970;20.842;2023-07-24T09:30:13;32.20;11.70
43842;DHT22;29495;49.970;20.842;2023-07-24T09:32:51;32.10;1.00
43842;DHT22;29495;49.970;20.842;2023-07-24T09:35:17;32.60;28.00
43842;DHT22;29495;49.970;20.842;2023-07-24T09:37:46;32.70;18.20
43842;DHT22;29495;49.970;20.842;2023-07-24T09:40:13;32.70;20.80
43842;DHT22;29495;49.970;20.842;2023-07-24T09:42:40;32.90;37.80
43842;DHT22;29495;49.970;20.842;2023-07-24T09:45:06;33.20;75.80
43842;DHT22;29495;49.970;20.842;2023-07-24T09:47:34;33.30;65.70
43842;DHT22;29495;49.970;20.842;2023-07-24T09:50:00;33.30;35.10
43842;DHT22;29495;49.970;20.842;2023-07-24T09:52:29;33.10;6.00
43842;DHT22;29495;49.970;20.842;2023-07-24T09:55:11;33.00;1.00
43842;DHT22;29495;49.970;20.842;2023-07-24T09:57:37;33.00;1.00
43842;DHT22;29495;49.970;20.842;2023-07-24T10:00:04;32.90;1.00
43842;DHT22;29495;49.970;20.842;2023-07-24T10:02:32;32.60;1.00
43842;DHT22;29495;49.970;20.842;2023-07-24T10:04:58;32.90;24.10
43842;DHT22;29495;49.970;20.842;2023-07-24T10:07:24;32.80;1.00
43842;DHT22;29495;49.970;20.842;2023-07-24T10:09:51;32.80;1.00
43842;DHT22;29495;49.970;20.842;2023-07-24T10:12:19;32.90;1.00
43842;DHT22;29495;49.970;20.842;2023-07-24T10:14:48;32.40;1.00
43842;DHT22;29495;49.970;20.842;2023-07-24T10:17:14;32.90;1.00
43842;DHT22;29495;49.970;20.842;2023-07-24T10:19:40;33.30;25.20
43842;DHT22;29495;49.970;20.842;2023-07-24T10:22:18;32.90;1.00
43842;DHT22;29495;49.970;20.842;2023-07-24T10:24:45;33.00;1.00
43842;DHT22;29495;49.970;20.842;2023-07-24T10:27:11;33.10;1.00
43842;DHT22;29495;49.970;20.842;2023-07-24T10:29:37;32.60;1.00
43842;DHT22;29495;49.970;20.842;2023-07-24T10:32:03;32.70;1.00
43842;DHT22;29495;49.970;20.842;2023-07-24T10:34:38;33.00;1.00
43842;DHT22;29495;49.970;20.842;2023-07-24T10:37:06;33.00;1.00
43842;DHT22;29495;49.970;20.842;2023-07-24T10:39:37;33.30;1.00
43842;DHT22;29495;49.970;20.842;2023-07-24T10:42:10;33.20;1.00
43842;DHT22;29495;49.970;20.842;2023-07-24T10:44:36;33.20;1.00
43842;DHT22;29495;49.970;20.842;2023-07-24T10:47:02;33.10;1.00
43842;DHT22;29495;49.970;20.842;2023-07-24T10:49:28;33.30;1.00
43842;DHT22;29495;49.970;20.842;2023-07-24T10:51:57;33.20;1.00
43842;DHT22;29495;49.970;20.842;2023-07-24T10:54:23;33.50;38.80
43842;DHT22;29495;49.970;20.842;2023-07-24T10:56:49;33.40;1.00
43842;DHT22;29495;49.970;20.842;2023-07-24T10:59:15;33.70;1.00
43842;DHT22;29495;49.970;20.842;2023-07-24T11:01:41;33.80;1.00
43842;DHT22;29495;49.970;20.842;2023-07-24T11:04:07;33.80;1.00
43842;DHT22;29495;49.970;20.842;2023-07-24T11:06:33;33.40;1.00
43842;DHT22;29495;49.970;20.842;2023-07-24T11:08:59;33.40;1.00
43842;DHT22;29495;49.970;20.842;2023-07-24T11:11:29;33.20;1.00
43842;DHT22;29495;49.970;20.842;2023-07-24T11:13:55;32.90;1.00
43842;DHT22;29495;49.970;20.842;2023-07-24T11:16:21;32.80;1.00
43842;DHT22;29495;49.970;20.842;2023-07-24T11:18:47;32.50;1.00
43842;DHT22;29495;49.970;20.842;2023-07-24T11:21:13;32.00;1.00
43842;DHT22;29495;49.970;20.842;2023-07-24T11:23:49;31.90;1.00
43842;DHT22;29495;49.970;20.842;2023-07-24T11:26:18;31.70;1.00
43842;DHT22;29495;49.970;20.842;2023-07-24T11:28:43;31.70;1.00
43842;DHT22;29495;49.970;20.842;2023-07-24T11:31:09;31.60;1.00
43842;DHT22;29495;49.970;20.842;2023-07-24T11:33:36;31.40;1.00
43842;DHT22;29495;49.970;20.842;2023-07-24T11:36:02;31.50;1.00
43842;DHT22;29495;49.970;20.842;2023-07-24T11:38:28;31.60;1.00
43842;DHT22;29495;49.970;20.842;2023-07-24T11:40:54;31.60;1.00
43842;DHT22;29495;49.970;20.842;2023-07-24T11:43:23;31.70;1.00
43842;DHT22;29495;49.970;20.842;2023-07-24T11:45:50;31.70;1.00
43842;DHT22;29495;49.970;20.842;2023-07-24T11:48:20;31.60;1.00
43842;DHT22;29495;49.970;20.842;2023-07-24T11:50:46;31.60;1.00
43842;DHT22;29495;49.970;20.842;2023-07-24T11:53:19;31.70;1.00
43842;DHT22;29495;49.970;20.842;2023-07-24T11:55:47;31.60;1.00
43842;DHT22;29495;49.970;20.842;2023-07-24T11:58:14;31.60;1.00
43842;DHT22;29495;49.970;20.842;2023-07-24T12:00:41;31.60;1.00
43842;DHT22;29495;49.970;20.842;2023-07-24T12:03:07;32.00;1.00
43842;DHT22;29495;49.970;20.842;2023-07-24T12:05:40;32.50;1.00
43842;DHT22;29495;49.970;20.842;2023-07-24T12:08:06;33.10;1.00
43842;DHT22;29495;49.970;20.842;2023-07-24T12:10:35;33.60;1.00
43842;DHT22;29495;49.970;20.842;2023-07-24T12:13:00;33.40;1.00
43842;DHT22;29495;49.970;20.842;2023-07-24T12:15:26;33.20;1.00
43842;DHT22;29495;49.970;20.842;2023-07-24T12:17:52;33.00;1.00
43842;DHT22;29495;49.970;20.842;2023-07-24T12:20:18;33.00;1.00
43842;DHT22;29495;49.970;20.842;2023-07-24T12:22:44;32.90;1.00
43842;DHT22;29495;49.970;20.842;2023-07-24T12:25:10;32.70;1.00
43842;DHT22;29495;49.970;20.842;2023-07-24T12:27:36;32.90;1.00
43842;DHT22;29495;49.970;20.842;2023-07-24T12:30:03;32.90;1.00
43842;DHT22;29495;49.970;20.842;2023-07-24T12:32:29;32.50;1.00
43842;DHT22;29495;49.970;20.842;2023-07-24T12:34:55;32.50;1.00
43842;DHT22;29495;49.970;20.842;2023-07-24T12:37:21;33.20;1.00
43842;DHT22;29495;49.970;20.842;2023-07-24T12:39:47;33.60;1.00
43842;DHT22;29495;49.970;20.842;2023-07-24T12:42:14;33.50;1.00
43842;DHT22;29495;49.970;20.842;2023-07-24T12:44:40;33.50;1.00
43842;DHT22;29495;49.970;20.842;2023-07-24T12:47:06;33.40;1.00
43842;DHT22;29495;49.970;20.842;2023-07-24T12:49:32;33.30;1.00
43842;DHT22;29495;49.970;20.842;2023-07-24T12:51:58;33.30;1.00
43842;DHT22;29495;49.970;20.842;2023-07-24T12:54:24;33.30;1.00
43842;DHT22;29495;49.970;20.842;2023-07-24T12:56:50;33.20;1.00
43842;DHT22;29495;49.970;20.842;2023-07-24T12:59:17;33.40;1.00
43842;DHT22;29495;49.970;20.842;2023-07-24T13:01:43;33.80;1.00
43842;DHT22;29495;49.970;20.842;2023-07-24T13:04:09;34.20;1.00
43842;DHT22;29495;49.970;20.842;2023-07-24T13:06:35;34.50;1.00
43842;DHT22;29495;49.970;20.842;2023-07-24T13:09:01;34.20;1.00
43842;DHT22;29495;49.970;20.842;2023-07-24T13:11:27;34.10;1.00
43842;DHT22;29495;49.970;20.842;2023-07-24T13:13:56;34.20;1.00
43842;DHT22;29495;49.970;20.842;2023-07-24T13:16:22;34.30;1.00
43842;DHT22;29495;49.970;20.842;2023-07-24T13:18:47;34.20;1.00
43842;DHT22;29495;49.970;20.842;2023-07-24T13:21:13;34.40;1.00
43842;DHT22;29495;49.970;20.842;2023-07-24T13:23:40;34.00;1.00
43842;DHT22;29495;49.970;20.842;2023-07-24T13:26:06;34.20;1.00
43842;DHT22;29495;49.970;20.842;2023-07-24T13:28:34;34.10;1.00
43842;DHT22;29495;49.970;20.842;2023-07-24T13:31:10;34.20;1.00
43842;DHT22;29495;49.970;20.842;2023-07-24T13:33:36;34.40;1.00
43842;DHT22;29495;49.970;20.842;2023-07-24T13:36:02;34.50;1.00
43842;DHT22;29495;49.970;20.842;2023-07-24T13:38:28;34.60;1.00
43842;DHT22;29495;49.970;20.842;2023-07-24T13:40:54;34.50;1.00
43842;DHT22;29495;49.970;20.842;2023-07-24T13:43:20;34.40;1.00
43842;DHT22;29495;49.970;20.842;2023-07-24T13:45:46;34.20;1.00
43842;DHT22;29495;49.970;20.842;2023-07-24T13:48:12;34.10;1.00
43842;DHT22;29495;49.970;20.842;2023-07-24T13:50:38;33.70;1.00
43842;DHT22;29495;49.970;20.842;2023-07-24T13:53:03;33.60;1.00
43842;DHT22;29495;49.970;20.842;2023-07-24T13:55:29;33.40;1.00
43842;DHT22;29495;49.970;20.842;2023-07-24T13:57:55;33.20;99.90
43842;DHT22;29495;49.970;20.842;2023-07-24T14:00:21;32.90;99.90
43842;DHT22;29495;49.970;20.842;2023-07-24T14:02:47;32.80;99.90
43842;DHT22;29495;49.970;20.842;2023-07-24T14:05:13;32.60;99.90
43842;DHT22;29495;49.970;20.842;2023-07-24T14:07:39;32.60;99.90
43842;DHT22;29495;49.970;20.842;2023-07-24T14:10:05;32.70;68.50
43842;DHT22;29495;49.970;20.842;2023-07-24T14:12:31;32.70;99.90
43842;DHT22;29495;49.970;20.842;2023-07-24T14:14:56;32.60;87.00
43842;DHT22;29495;49.970;20.842;2023-07-24T14:17:22;32.60;68.90
43842;DHT22;29495;49.970;20.842;2023-07-24T14:19:48;32.30;99.90
43842;DHT22;29495;49.970;20.842;2023-07-24T14:22:14;32.00;65.10
43842;DHT22;29495;49.970;20.842;2023-07-24T14:24:40;31.80;99.90
43842;DHT22;29495;49.970;20.842;2023-07-24T14:27:06;31.60;85.60
43842;DHT22;29495;49.970;20.842;2023-07-24T14:29:32;31.30;99.90
43842;DHT22;29495;49.970;20.842;2023-07-24T14:31:58;31.20;99.90
43842;DHT22;29495;49.970;20.842;2023-07-24T14:34:23;31.00;99.90
43842;DHT22;29495;49.970;20.842;2023-07-24T14:36:49;30.90;99.90
43842;DHT22;29495;49.970;20.842;2023-07-24T14:39:15;31.00;99.90
43842;DHT22;29495;49.970;20.842;2023-07-24T14:41:41;31.20;99.90
43842;DHT22;29495;49.970;20.842;2023-07-24T14:44:07;31.30;99.90
43842;DHT22;29495;49.970;20.842;2023-07-24T14:46:33;31.40;99.90
43842;DHT22;29495;49.970;20.842;2023-07-24T14:49:09;31.40;99.90
43842;DHT22;29495;49.970;20.842;2023-07-24T14:51:35;31.30;99.90
43842;DHT22;29495;49.970;20.842;2023-07-24T14:57:40;31.40;99.90
43842;DHT22;29495;49.970;20.842;2023-07-24T15:00:15;31.40;99.90
43842;DHT22;29495;49.970;20.842;2023-07-24T15:02:41;31.40;99.90
43842;DHT22;29495;49.970;20.842;2023-07-24T15:05:07;31.40;99.90
43842;DHT22;29495;49.970;20.842;2023-07-24T15:07:37;31.30;99.90
43842;DHT22;29495;49.970;20.842;2023-07-24T15:10:19;31.20;99.90
43842;DHT22;29495;49.970;20.842;2023-07-24T15:12:47;31.00;1.00
43842;DHT22;29495;49.970;20.842;2023-07-24T15:15:12;31.30;1.00
43842;DHT22;29495;49.970;20.842;2023-07-24T15:17:40;31.30;1.00
43842;DHT22;29495;49.970;20.842;2023-07-24T15:20:09;31.40;99.90
43842;DHT22;29495;49.970;20.842;2023-07-24T15:22:35;31.90;1.00
43842;DHT22;29495;49.970;20.842;2023-07-24T15:25:01;32.00;1.00
43842;DHT22;29495;49.970;20.842;2023-07-24T15:27:28;31.80;99.90
43842;DHT22;29495;49.970;20.842;2023-07-24T15:29:54;31.60;99.90